sensor_id;sensor_type;location;lat;lon;timestamp;pressure;altitude;pressure_sealevel;temperature;humidity
65181;BME280;51765;48.112;11.766;2023-12-29T00:00:29;95636.91;;;9.92;100.00
65181;BME280;51765;48.112;11.766;2023-12-29T00:02:56;95639.28;;;9.80;100.00
65181;BME280;51765;48.112;11.766;2023-12-29T00:05:23;95631.63;;;9.72;100.00
65181;BME280;51765;48.112;11.766;2023-12-29T00:07:52;95629.56;;;9.60;100.00
65181;BME280;51765;48.112;11.766;2023-12-29T00:10:19;95630.97;;;9.56;100.00
65181;BME280;51765;48.112;11.766;2023-12-29T00:12:45;95624.53;;;9.52;100.00
65181;BME280;51765;48.112;11.766;2023-12-29T00:15:12;95618.47;;;9.38;100.00
65181;BME280;51765;48.112;11.766;2023-12-29T00:17:38;95615.78;;;9.25;100.00
65181;BME280;51765;48.112;11.766;2023-12-29T00:20:06;95605.94;;;9.20;100.00
65181;BME280;51765;48.112;11.766;2023-12-29T00:22:33;95604.59;;;8.96;100.00
65181;BME280;51765;48.112;11.766;2023-12-29T00:25:01;95604.56;;;8.89;100.00
65181;BME280;51765;48.112;11.766;2023-12-29T00:27:30;95600.25;;;8.75;100.00
65181;BME280;51765;48.112;11.766;2023-12-29T00:29:56;95597.00;;;8.66;100.00
65181;BME280;51765;48.112;11.766;2023-12-29T00:32:23;95591.28;;;8.49;100.00
65181;BME280;51765;48.112;11.766;2023-12-29T00:34:50;95603.47;;;8.42;100.00
65181;BME280;51765;48.112;11.766;2023-12-29T00:37:17;95602.81;;;8.40;100.00
65181;BME280;51765;48.112;11.766;2023-12-29T00:39:43;95598.81;;;8.37;100.00
65181;BME280;51765;48.112;11.766;2023-12-29T00:42:11;95602.34;;;8.30;100.00
65181;BME280;51765;48.112;11.766;2023-12-29T00:44:38;95597.47;;;8.20;100.00
65181;BME280;51765;48.112;11.766;2023-12-29T00:47:06;95597.94;;;8.30;100.00
65181;BME280;51765;48.112;11.766;2023-12-29T00:49:33;95597.47;;;8.20;100.00
65181;BME280;51765;48.112;11.766;2023-12-29T00:51:59;95593.22;;;8.19;100.00
65181;BME280;51765;48.112;11.766;2023-12-29T00:54:28;95582.00;;;8.18;100.00
65181;BME280;51765;48.112;11.766;2023-12-29T00:56:54;95579.44;;;8.25;100.00
65181;BME280;51765;48.112;11.766;2023-12-29T00:59:22;95575.81;;;8.26;100.00
65181;BME280;51765;48.112;11.766;2023-12-29T01:01:49;95576.81;;;8.25;100.00
65181;BME280;51765;48.112;11.766;2023-12-29T01:04:16;95583.03;;;8.24;100.00
65181;BME280;51765;48.112;11.766;2023-12-29T01:06:43;95583.47;;;8.28;100.00
65181;BME280;51765;48.112;11.766;2023-12-29T01:09:10;95578.59;;;8.24;100.00
65181;BME280;51765;48.112;11.766;2023-12-29T01:11:37;95575.66;;;8.28;100.00
65181;BME280;51765;48.112;11.766;2023-12-29T01:14:03;95585.97;;;8.14;100.00
65181;BME280;51765;48.112;11.766;2023-12-29T01:16:33;95589.81;;;8.18;100.00
65181;BME280;51765;48.112;11.766;2023-12-29T01:19:00;95586.84;;;8.21;100.00
65181;BME280;51765;48.112;11.766;2023-12-29T01:21:26;95580.56;;;8.16;100.00
65181;BME280;51765;48.112;11.766;2023-12-29T01:23:54;95583.44;;;8.21;100.00
65181;BME280;51765;48.112;11.766;2023-12-29T01:26:21;95586.59;;;8.16;100.00
65181;BME280;51765;48.112;11.766;2023-12-29T01:28:48;95588.59;;;8.14;100.00
65181;BME280;51765;48.112;11.766;2023-12-29T01:31:14;95595.69;;;7.99;100.00
65181;BME280;51765;48.112;11.766;2023-12-29T01:33:42;95599.53;;;8.03;100.00
65181;BME280;51765;48.112;11.766;2023-12-29T01:36:09;95598.03;;;7.94;100.00
65181;BME280;51765;48.112;11.766;2023-12-29T01:38:42;95597.31;;;8.00;100.00
65181;BME280;51765;48.112;11.766;2023-12-29T01:41:09;95597.38;;;8.06;100.00
65181;BME280;51765;48.112;11.766;2023-12-29T01:43:36;95592.94;;;8.07;100.00
65181;BME280;51765;48.112;11.766;2023-12-29T01:46:03;95587.34;;;8.10;100.00
65181;BME280;51765;48.112;11.766;2023-12-29T01:48:29;95592.31;;;8.05;100.00
65181;BME280;51765;48.112;11.766;2023-12-29T01:50:58;95586.69;;;8.01;100.00
65181;BME280;51765;48.112;11.766;2023-12-29T01:53:25;95584.00;;;7.95;100.00
65181;BME280;51765;48.112;11.766;2023-12-29T01:55:51;95589.34;;;7.86;100.00
65181;BME280;51765;48.112;11.766;2023-12-29T01:58:18;95578.69;;;7.81;100.00
65181;BME280;51765;48.112;11.766;2023-12-29T02:00:45;95579.50;;;7.82;100.00
65181;BME280;51765;48.112;11.766;2023-12-29T02:03:12;95574.56;;;7.94;100.00
65181;BME280;51765;48.112;11.766;2023-12-29T02:05:39;95570.78;;;7.96;100.00
65181;BME280;51765;48.112;11.766;2023-12-29T02:08:07;95574.03;;;7.98;100.00
65181;BME280;51765;48.112;11.766;2023-12-29T02:10:35;95568.34;;;7.95;100.00
65181;BME280;51765;48.112;11.766;2023-12-29T02:13:02;95567.50;;;7.87;100.00
65181;BME280;51765;48.112;11.766;2023-12-29T02:15:29;95568.13;;;7.68;100.00
65181;BME280;51765;48.112;11.766;2023-12-29T02:17:57;95562.91;;;7.68;100.00
65181;BME280;51765;48.112;11.766;2023-12-29T02:20:26;95558.38;;;7.55;100.00
65181;BME280;51765;48.112;11.766;2023-12-29T02:22:53;95562.91;;;7.46;100.00
65181;BME280;51765;48.112;11.766;2023-12-29T02:25:21;95556.28;;;7.44;100.00
65181;BME280;51765;48.112;11.766;2023-12-29T02:27:49;95547.25;;;7.25;100.00
65181;BME280;51765;48.112;11.766;2023-12-29T02:30:20;95546.84;;;7.06;100.00
65181;BME280;51765;48.112;11.766;2023-12-29T02:32:49;95556.91;;;6.94;100.00
65181;BME280;51765;48.112;11.766;2023-12-29T02:35:18;95557.75;;;6.95;100.00
65181;BME280;51765;48.112;11.766;2023-12-29T02:37:45;95557.94;;;6.93;100.00
65181;BME280;51765;48.112;11.766;2023-12-29T02:40:12;95559.09;;;6.91;100.00
65181;BME280;51765;48.112;11.766;2023-12-29T02:42:45;95557.19;;;6.84;100.00
65181;BME280;51765;48.112;11.766;2023-12-29T02:45:12;95560.13;;;6.75;100.00
65181;BME280;51765;48.112;11.766;2023-12-29T02:47:39;95548.25;;;6.72;100.00
65181;BME280;51765;48.112;11.766;2023-12-29T02:50:08;95552.31;;;6.60;100.00
65181;BME280;51765;48.112;11.766;2023-12-29T02:52:35;95546.63;;;6.71;100.00
65181;BME280;51765;48.112;11.766;2023-12-29T02:55:03;95539.56;;;6.65;100.00
65181;BME280;51765;48.112;11.766;2023-12-29T02:57:30;95534.22;;;6.73;100.00
65181;BME280;51765;48.112;11.766;2023-12-29T02:59:58;95523.94;;;6.65;100.00
65181;BME280;51765;48.112;11.766;2023-12-29T03:02:26;95521.47;;;6.63;100.00
65181;BME280;51765;48.112;11.766;2023-12-29T03:04:53;95515.09;;;6.66;100.00
65181;BME280;51765;48.112;11.766;2023-12-29T03:07:20;95519.16;;;6.68;100.00
65181;BME280;51765;48.112;11.766;2023-12-29T03:09:46;95513.03;;;6.76;100.00
65181;BME280;51765;48.112;11.766;2023-12-29T03:12:13;95509.09;;;6.80;100.00
65181;BME280;51765;48.112;11.766;2023-12-29T03:14:39;95509.50;;;6.84;100.00
65181;BME280;51765;48.112;11.766;2023-12-29T03:17:07;95502.16;;;6.88;100.00
65181;BME280;51765;48.112;11.766;2023-12-29T03:19:34;95503.59;;;7.12;100.00
65181;BME280;51765;48.112;11.766;2023-12-29T03:22:01;95504.94;;;7.23;100.00
65181;BME280;51765;48.112;11.766;2023-12-29T03:24:29;95505.88;;;7.36;100.00
65181;BME280;51765;48.112;11.766;2023-12-29T03:26:56;95499.56;;;7.52;100.00
65181;BME280;51765;48.112;11.766;2023-12-29T03:29:23;95509.19;;;7.74;100.00
65181;BME280;51765;48.112;11.766;2023-12-29T03:31:50;95510.53;;;7.91;100.00
65181;BME280;51765;48.112;11.766;2023-12-29T03:34:18;95502.84;;;8.11;100.00
65181;BME280;51765;48.112;11.766;2023-12-29T03:36:45;95503.94;;;8.30;100.00
65181;BME280;51765;48.112;11.766;2023-12-29T03:39:11;95507.03;;;8.40;100.00
65181;BME280;51765;48.112;11.766;2023-12-29T03:41:38;95505.47;;;8.46;100.00
65181;BME280;51765;48.112;11.766;2023-12-29T03:44:05;95510.44;;;8.41;100.00
65181;BME280;51765;48.112;11.766;2023-12-29T03:46:32;95502.56;;;8.34;100.00
65181;BME280;51765;48.112;11.766;2023-12-29T03:48:59;95497.06;;;8.22;100.00
65181;BME280;51765;48.112;11.766;2023-12-29T03:51:27;95492.59;;;8.16;100.00
65181;BME280;51765;48.112;11.766;2023-12-29T03:53:54;95499.50;;;7.96;100.00
65181;BME280;51765;48.112;11.766;2023-12-29T03:56:21;95491.09;;;8.00;100.00
65181;BME280;51765;48.112;11.766;2023-12-29T03:58:47;95482.44;;;7.93;100.00
65181;BME280;51765;48.112;11.766;2023-12-29T04:01:14;95489.28;;;8.01;100.00
65181;BME280;51765;48.112;11.766;2023-12-29T04:03:41;95500.50;;;7.95;100.00
65181;BME280;51765;48.112;11.766;2023-12-29T04:06:08;95502.06;;;7.89;100.00
65181;BME280;51765;48.112;11.766;2023-12-29T04:08:37;95497.31;;;7.99;100.00
65181;BME280;51765;48.112;11.766;2023-12-29T04:11:04;95500.47;;;8.23;100.00
65181;BME280;51765;48.112;11.766;2023-12-29T04:13:31;95496.34;;;8.35;100.00
65181;BME280;51765;48.112;11.766;2023-12-29T04:15:57;95492.25;;;8.54;100.00
65181;BME280;51765;48.112;11.766;2023-12-29T04:18:24;95484.63;;;8.60;100.00
65181;BME280;51765;48.112;11.766;2023-12-29T04:20:51;95486.47;;;8.66;100.00
65181;BME280;51765;48.112;11.766;2023-12-29T04:23:18;95480.50;;;8.79;100.00
65181;BME280;51765;48.112;11.766;2023-12-29T04:25:46;95482.69;;;8.75;100.00
65181;BME280;51765;48.112;11.766;2023-12-29T04:28:13;95494.94;;;8.74;100.00
65181;BME280;51765;48.112;11.766;2023-12-29T04:30:39;95482.31;;;8.78;100.00
65181;BME280;51765;48.112;11.766;2023-12-29T04:33:06;95478.09;;;8.84;100.00
65181;BME280;51765;48.112;11.766;2023-12-29T04:35:33;95477.09;;;8.91;100.00
65181;BME280;51765;48.112;11.766;2023-12-29T04:37:59;95485.97;;;8.97;100.00
65181;BME280;51765;48.112;11.766;2023-12-29T04:40:27;95485.38;;;9.02;100.00
65181;BME280;51765;48.112;11.766;2023-12-29T04:42:55;95477.34;;;9.03;100.00
65181;BME280;51765;48.112;11.766;2023-12-29T04:45:25;95481.19;;;9.14;100.00
65181;BME280;51765;48.112;11.766;2023-12-29T04:47:51;95476.38;;;9.18;100.00
65181;BME280;51765;48.112;11.766;2023-12-29T04:50:18;95470.75;;;9.21;100.00
65181;BME280;51765;48.112;11.766;2023-12-29T04:52:45;95476.97;;;9.20;100.00
65181;BME280;51765;48.112;11.766;2023-12-29T04:55:11;95474.16;;;9.15;100.00
65181;BME280;51765;48.112;11.766;2023-12-29T04:57:38;95474.16;;;9.21;100.00
65181;BME280;51765;48.112;11.766;2023-12-29T05:00:07;95477.00;;;9.26;100.00
65181;BME280;51765;48.112;11.766;2023-12-29T05:02:34;95475.38;;;9.32;100.00
65181;BME280;51765;48.112;11.766;2023-12-29T05:05:00;95464.72;;;9.34;100.00
65181;BME280;51765;48.112;11.766;2023-12-29T05:07:28;95467.94;;;9.42;100.00
65181;BME280;51765;48.112;11.766;2023-12-29T05:09:55;95471.16;;;9.38;100.00
65181;BME280;51765;48.112;11.766;2023-12-29T05:12:22;95468.94;;;9.48;100.00
65181;BME280;51765;48.112;11.766;2023-12-29T05:14:48;95472.78;;;9.32;100.00
65181;BME280;51765;48.112;11.766;2023-12-29T05:17:16;95466.75;;;9.38;100.00
65181;BME280;51765;48.112;11.766;2023-12-29T05:19:44;95474.97;;;9.22;100.00
65181;BME280;51765;48.112;11.766;2023-12-29T05:22:11;95470.31;;;9.04;100.00
65181;BME280;51765;48.112;11.766;2023-12-29T05:24:41;95467.44;;;8.92;100.00
65181;BME280;51765;48.112;11.766;2023-12-29T05:27:08;95456.81;;;8.94;100.00
65181;BME280;51765;48.112;11.766;2023-12-29T05:29:35;95465.47;;;8.94;100.00
65181;BME280;51765;48.112;11.766;2023-12-29T05:32:01;95474.25;;;8.73;100.00
65181;BME280;51765;48.112;11.766;2023-12-29T05:34:30;95474.47;;;8.78;100.00
65181;BME280;51765;48.112;11.766;2023-12-29T05:36:56;95466.81;;;8.83;100.00
65181;BME280;51765;48.112;11.766;2023-12-29T05:39:23;95474.69;;;8.90;100.00
65181;BME280;51765;48.112;11.766;2023-12-29T05:41:50;95478.47;;;8.81;100.00
65181;BME280;51765;48.112;11.766;2023-12-29T05:44:16;95480.91;;;8.89;100.00
65181;BME280;51765;48.112;11.766;2023-12-29T05:46:45;95473.28;;;8.87;100.00
65181;BME280;51765;48.112;11.766;2023-12-29T05:49:12;95492.59;;;8.93;100.00
65181;BME280;51765;48.112;11.766;2023-12-29T05:51:40;95498.63;;;8.94;100.00
65181;BME280;51765;48.112;11.766;2023-12-29T05:54:07;95489.94;;;8.80;100.00
65181;BME280;51765;48.112;11.766;2023-12-29T05:56:34;95497.56;;;8.74;100.00
65181;BME280;51765;48.112;11.766;2023-12-29T05:59:00;95491.63;;;8.52;100.00
65181;BME280;51765;48.112;11.766;2023-12-29T06:01:28;95495.31;;;8.30;100.00
65181;BME280;51765;48.112;11.766;2023-12-29T06:03:54;95499.53;;;8.31;100.00
65181;BME280;51765;48.112;11.766;2023-12-29T06:06:21;95497.66;;;8.18;100.00
65181;BME280;51765;48.112;11.766;2023-12-29T06:08:49;95512.81;;;8.36;100.00
65181;BME280;51765;48.112;11.766;2023-12-29T06:11:16;95509.59;;;8.34;100.00
65181;BME280;51765;48.112;11.766;2023-12-29T06:13:43;95503.38;;;8.35;100.00
65181;BME280;51765;48.112;11.766;2023-12-29T06:16:09;95511.41;;;8.33;100.00
65181;BME280;51765;48.112;11.766;2023-12-29T06:18:39;95502.41;;;8.43;100.00
65181;BME280;51765;48.112;11.766;2023-12-29T06:21:06;95511.53;;;8.53;100.00
65181;BME280;51765;48.112;11.766;2023-12-29T06:23:32;95507.78;;;8.63;100.00
65181;BME280;51765;48.112;11.766;2023-12-29T06:26:01;95513.19;;;8.68;100.00
65181;BME280;51765;48.112;11.766;2023-12-29T06:28:27;95520.28;;;8.81;100.00
65181;BME280;51765;48.112;11.766;2023-12-29T06:30:54;95511.41;;;8.75;100.00
65181;BME280;51765;48.112;11.766;2023-12-29T06:33:21;95519.50;;;8.80;100.00
65181;BME280;51765;48.112;11.766;2023-12-29T06:35:48;95513.03;;;8.76;100.00
65181;BME280;51765;48.112;11.766;2023-12-29T06:38:14;95519.06;;;8.77;100.00
65181;BME280;51765;48.112;11.766;2023-12-29T06:40:41;95509.63;;;8.82;100.00
65181;BME280;51765;48.112;11.766;2023-12-29T06:43:10;95510.25;;;8.84;100.00
65181;BME280;51765;48.112;11.766;2023-12-29T06:45:36;95504.03;;;8.85;100.00
65181;BME280;51765;48.112;11.766;2023-12-29T06:48:03;95503.22;;;8.78;100.00
65181;BME280;51765;48.112;11.766;2023-12-29T06:50:30;95497.38;;;8.83;100.00
65181;BME280;51765;48.112;11.766;2023-12-29T06:52:57;95503.38;;;8.77;100.00
65181;BME280;51765;48.112;11.766;2023-12-29T06:55:24;95516.88;;;8.80;100.00
65181;BME280;51765;48.112;11.766;2023-12-29T06:57:50;95513.66;;;8.85;100.00
65181;BME280;51765;48.112;11.766;2023-12-29T07:00:19;95509.63;;;8.76;100.00
65181;BME280;51765;48.112;11.766;2023-12-29T07:02:47;95510.00;;;8.66;100.00
65181;BME280;51765;48.112;11.766;2023-12-29T07:05:14;95501.31;;;8.65;100.00
65181;BME280;51765;48.112;11.766;2023-12-29T07:07:41;95504.91;;;8.57;100.00
65181;BME280;51765;48.112;11.766;2023-12-29T07:10:08;95499.09;;;8.62;100.00
65181;BME280;51765;48.112;11.766;2023-12-29T07:12:41;95494.94;;;9.43;100.00
65181;BME280;51765;48.112;11.766;2023-12-29T07:15:08;95497.88;;;10.34;100.00
65181;BME280;51765;48.112;11.766;2023-12-29T07:17:36;95501.78;;;10.04;100.00
65181;BME280;51765;48.112;11.766;2023-12-29T07:20:03;95499.16;;;9.64;100.00
65181;BME280;51765;48.112;11.766;2023-12-29T07:22:31;95510.59;;;9.36;100.00
65181;BME280;51765;48.112;11.766;2023-12-29T07:24:59;95508.34;;;9.20;100.00
65181;BME280;51765;48.112;11.766;2023-12-29T07:27:26;95521.44;;;9.13;100.00
65181;BME280;51765;48.112;11.766;2023-12-29T07:29:53;95515.56;;;9.11;100.00
65181;BME280;51765;48.112;11.766;2023-12-29T07:32:20;95515.16;;;9.07;100.00
65181;BME280;51765;48.112;11.766;2023-12-29T07:34:48;95526.81;;;9.05;100.00
65181;BME280;51765;48.112;11.766;2023-12-29T07:37:15;95526.59;;;9.00;100.00
65181;BME280;51765;48.112;11.766;2023-12-29T07:39:41;95538.06;;;8.99;100.00
65181;BME280;51765;48.112;11.766;2023-12-29T07:42:08;95536.03;;;8.94;100.00
65181;BME280;51765;48.112;11.766;2023-12-29T07:44:37;95545.06;;;8.91;100.00
65181;BME280;51765;48.112;11.766;2023-12-29T07:47:04;95541.47;;;8.93;100.00
65181;BME280;51765;48.112;11.766;2023-12-29T07:49:31;95540.25;;;8.95;100.00
65181;BME280;51765;48.112;11.766;2023-12-29T07:51:59;95540.47;;;9.00;100.00
65181;BME280;51765;48.112;11.766;2023-12-29T07:54:26;95544.31;;;9.04;100.00
65181;BME280;51765;48.112;11.766;2023-12-29T07:56:52;95540.31;;;9.15;100.00
65181;BME280;51765;48.112;11.766;2023-12-29T07:59:19;95560.03;;;9.18;100.00
65181;BME280;51765;48.112;11.766;2023-12-29T08:01:46;95555.22;;;9.21;100.00
65181;BME280;51765;48.112;11.766;2023-12-29T08:04:13;95558.69;;;9.29;100.00
65181;BME280;51765;48.112;11.766;2023-12-29T08:06:39;95564.09;;;9.34;100.00
65181;BME280;51765;48.112;11.766;2023-12-29T08:09:07;95555.66;;;9.32;100.00
65181;BME280;51765;48.112;11.766;2023-12-29T08:11:34;95555.84;;;9.37;100.00
65181;BME280;51765;48.112;11.766;2023-12-29T08:14:01;95556.88;;;9.42;100.00
65181;BME280;51765;48.112;11.766;2023-12-29T08:16:28;95544.41;;;9.38;100.00
65181;BME280;51765;48.112;11.766;2023-12-29T08:18:54;95545.84;;;9.47;100.00
65181;BME280;51765;48.112;11.766;2023-12-29T08:21:21;95554.09;;;9.51;100.00
65181;BME280;51765;48.112;11.766;2023-12-29T08:23:48;95552.47;;;9.56;100.00
65181;BME280;51765;48.112;11.766;2023-12-29T08:26:16;95550.06;;;9.55;100.00
65181;BME280;51765;48.112;11.766;2023-12-29T08:28:42;95545.66;;;9.69;100.00
65181;BME280;51765;48.112;11.766;2023-12-29T08:31:10;95549.28;;;9.61;100.00
65181;BME280;51765;48.112;11.766;2023-12-29T08:33:37;95540.63;;;9.60;100.00
65181;BME280;51765;48.112;11.766;2023-12-29T08:36:04;95545.28;;;9.65;100.00
65181;BME280;51765;48.112;11.766;2023-12-29T08:38:31;95549.88;;;9.63;100.00
65181;BME280;51765;48.112;11.766;2023-12-29T08:40:57;95545.47;;;9.64;100.00
65181;BME280;51765;48.112;11.766;2023-12-29T08:43:25;95554.94;;;9.71;100.00
65181;BME280;51765;48.112;11.766;2023-12-29T08:45:52;95558.38;;;9.85;100.00
65181;BME280;51765;48.112;11.766;2023-12-29T08:48:19;95551.94;;;9.94;100.00
65181;BME280;51765;48.112;11.766;2023-12-29T08:50:46;95557.56;;;10.05;100.00
65181;BME280;51765;48.112;11.766;2023-12-29T08:53:12;95553.53;;;10.09;100.00
65181;BME280;51765;48.112;11.766;2023-12-29T08:55:40;95557.56;;;10.05;100.00
65181;BME280;51765;48.112;11.766;2023-12-29T08:58:07;95560.38;;;10.17;100.00
65181;BME280;51765;48.112;11.766;2023-12-29T09:00:35;95558.38;;;10.25;100.00
65181;BME280;51765;48.112;11.766;2023-12-29T09:03:02;95551.72;;;10.29;100.00
65181;BME280;51765;48.112;11.766;2023-12-29T09:05:29;95552.50;;;10.30;100.00
65181;BME280;51765;48.112;11.766;2023-12-29T09:07:55;95553.94;;;10.26;100.00
65181;BME280;51765;48.112;11.766;2023-12-29T09:10:22;95558.75;;;10.22;100.00
65181;BME280;51765;48.112;11.766;2023-12-29T09:12:49;95555.75;;;10.12;100.00
65181;BME280;51765;48.112;11.766;2023-12-29T09:15:16;95562.38;;;10.01;100.00
65181;BME280;51765;48.112;11.766;2023-12-29T09:17:44;95568.22;;;9.90;100.00
65181;BME280;51765;48.112;11.766;2023-12-29T09:20:10;95560.19;;;10.05;100.00
65181;BME280;51765;48.112;11.766;2023-12-29T09:22:37;95554.75;;;10.13;100.00
65181;BME280;51765;48.112;11.766;2023-12-29T09:25:04;95554.34;;;10.29;100.00
65181;BME280;51765;48.112;11.766;2023-12-29T09:27:31;95555.38;;;10.35;100.00
65181;BME280;51765;48.112;11.766;2023-12-29T09:29:58;95557.97;;;10.42;100.00
65181;BME280;51765;48.112;11.766;2023-12-29T09:32:24;95557.56;;;10.45;100.00
65181;BME280;51765;48.112;11.766;2023-12-29T09:34:52;95550.47;;;10.59;100.00
65181;BME280;51765;48.112;11.766;2023-12-29T09:37:19;95554.84;;;10.78;100.00
65181;BME280;51765;48.112;11.766;2023-12-29T09:39:46;95545.75;;;10.88;100.00
65181;BME280;51765;48.112;11.766;2023-12-29T09:42:13;95543.69;;;10.96;100.00
65181;BME280;51765;48.112;11.766;2023-12-29T09:44:42;95543.25;;;11.06;100.00
65181;BME280;51765;48.112;11.766;2023-12-29T09:47:09;95542.00;;;11.16;100.00
65181;BME280;51765;48.112;11.766;2023-12-29T09:49:37;95536.06;;;11.34;100.00
65181;BME280;51765;48.112;11.766;2023-12-29T09:52:07;95532.59;;;11.40;100.00
65181;BME280;51765;48.112;11.766;2023-12-29T09:54:34;95537.59;;;11.48;100.00
65181;BME280;51765;48.112;11.766;2023-12-29T09:57:01;95536.56;;;11.17;100.00
65181;BME280;51765;48.112;11.766;2023-12-29T09:59:29;95545.41;;;11.23;100.00
65181;BME280;51765;48.112;11.766;2023-12-29T10:01:55;95538.81;;;11.07;100.00
65181;BME280;51765;48.112;11.766;2023-12-29T10:04:22;95539.53;;;10.82;100.00
65181;BME280;51765;48.112;11.766;2023-12-29T10:06:49;95531.50;;;10.70;100.00
65181;BME280;51765;48.112;11.766;2023-12-29T10:09:18;95524.78;;;10.81;100.00
65181;BME280;51765;48.112;11.766;2023-12-29T10:11:46;95527.06;;;10.71;100.00
65181;BME280;51765;48.112;11.766;2023-12-29T10:14:17;95524.97;;;10.86;100.00
65181;BME280;51765;48.112;11.766;2023-12-29T10:16:50;95524.78;;;10.88;100.00
65181;BME280;51765;48.112;11.766;2023-12-29T10:19:30;95520.75;;;10.78;100.00
65181;BME280;51765;48.112;11.766;2023-12-29T10:22:03;95520.16;;;10.83;100.00
65181;BME280;51765;48.112;11.766;2023-12-29T10:24:34;95510.69;;;10.82;100.00
65181;BME280;51765;48.112;11.766;2023-12-29T10:27:01;95515.94;;;10.75;100.00
65181;BME280;51765;48.112;11.766;2023-12-29T10:29:28;95507.72;;;10.72;100.00
65181;BME280;51765;48.112;11.766;2023-12-29T10:31:55;95518.16;;;10.78;100.00
65181;BME280;51765;48.112;11.766;2023-12-29T10:34:22;95514.28;;;10.88;100.00
65181;BME280;51765;48.112;11.766;2023-12-29T10:36:54;95500.97;;;10.89;100.00
65181;BME280;51765;48.112;11.766;2023-12-29T10:39:21;95501.91;;;11.02;100.00
65181;BME280;51765;48.112;11.766;2023-12-29T10:41:49;95486.94;;;11.09;100.00
65181;BME280;51765;48.112;11.766;2023-12-29T10:44:16;95488.31;;;11.18;100.00
65181;BME280;51765;48.112;11.766;2023-12-29T10:46:42;95479.84;;;11.16;100.00
65181;BME280;51765;48.112;11.766;2023-12-29T10:49:11;95482.16;;;11.38;100.00
65181;BME280;51765;48.112;11.766;2023-12-29T10:51:38;95477.53;;;11.33;100.00
65181;BME280;51765;48.112;11.766;2023-12-29T10:54:05;95474.56;;;11.55;100.00
65181;BME280;51765;48.112;11.766;2023-12-29T10:56:32;95486.66;;;11.56;100.00
65181;BME280;51765;48.112;11.766;2023-12-29T10:59:01;95474.13;;;11.58;100.00
65181;BME280;51765;48.112;11.766;2023-12-29T11:01:28;95470.09;;;11.55;100.00
65181;BME280;51765;48.112;11.766;2023-12-29T11:03:59;95470.38;;;11.72;100.00
65181;BME280;51765;48.112;11.766;2023-12-29T11:06:26;95468.22;;;11.88;100.00
65181;BME280;51765;48.112;11.766;2023-12-29T11:08:53;95467.16;;;12.02;100.00
65181;BME280;51765;48.112;11.766;2023-12-29T11:11:20;95460.97;;;12.15;100.00
65181;BME280;51765;48.112;11.766;2023-12-29T11:13:45;95453.88;;;12.15;100.00
65181;BME280;51765;48.112;11.766;2023-12-29T11:16:14;95456.78;;;12.26;100.00
65181;BME280;51765;48.112;11.766;2023-12-29T11:18:43;95443.59;;;12.32;100.00
65181;BME280;51765;48.112;11.766;2023-12-29T11:21:10;95451.34;;;12.27;100.00
65181;BME280;51765;48.112;11.766;2023-12-29T11:23:40;95438.97;;;12.46;100.00
65181;BME280;51765;48.112;11.766;2023-12-29T11:26:07;95442.34;;;12.54;100.00
65181;BME280;51765;48.112;11.766;2023-12-29T11:28:36;95443.22;;;12.47;100.00
65181;BME280;51765;48.112;11.766;2023-12-29T11:31:03;95444.22;;;12.65;100.00
65181;BME280;51765;48.112;11.766;2023-12-29T11:33:34;95446.88;;;12.46;100.00
65181;BME280;51765;48.112;11.766;2023-12-29T11:36:07;95438.00;;;12.59;100.00
65181;BME280;51765;48.112;11.766;2023-12-29T11:38:44;95433.44;;;12.55;100.00
65181;BME280;51765;48.112;11.766;2023-12-29T11:41:16;95447.53;;;12.60;100.00
65181;BME280;51765;48.112;11.766;2023-12-29T11:43:54;95435.84;;;12.56;100.00
65181;BME280;51765;48.112;11.766;2023-12-29T11:46:35;95448.53;;;12.59;100.00
65181;BME280;51765;48.112;11.766;2023-12-29T11:49:04;95443.66;;;12.63;100.00
65181;BME280;51765;48.112;11.766;2023-12-29T11:51:31;95425.50;;;12.43;100.00
65181;BME280;51765;48.112;11.766;2023-12-29T11:53:58;95423.41;;;12.63;100.00
65181;BME280;51765;48.112;11.766;2023-12-29T11:56:24;95431.03;;;12.34;100.00
65181;BME280;51765;48.112;11.766;2023-12-29T11:58:57;95440.44;;;12.61;100.00
65181;BME280;51765;48.112;11.766;2023-12-29T12:01:33;95417.94;;;12.46;100.00
65181;BME280;51765;48.112;11.766;2023-12-29T12:04:00;95423.81;;;12.48;100.00
65181;BME280;51765;48.112;11.766;2023-12-29T12:06:37;95414.88;;;12.68;100.00
65181;BME280;51765;48.112;11.766;2023-12-29T12:09:17;95415.13;;;12.78;100.00
65181;BME280;51765;48.112;11.766;2023-12-29T12:11:44;95410.09;;;12.77;100.00
65181;BME280;51765;48.112;11.766;2023-12-29T12:14:11;95397.28;;;12.50;100.00
65181;BME280;51765;48.112;11.766;2023-12-29T12:16:58;95403.28;;;12.57;100.00
65181;BME280;51765;48.112;11.766;2023-12-29T12:19:25;95391.63;;;12.65;100.00
65181;BME280;51765;48.112;11.766;2023-12-29T12:21:56;95405.22;;;12.62;100.00
65181;BME280;51765;48.112;11.766;2023-12-29T12:24:23;95403.13;;;12.52;100.00
65181;BME280;51765;48.112;11.766;2023-12-29T12:26:51;95395.31;;;12.64;100.00
65181;BME280;51765;48.112;11.766;2023-12-29T12:29:19;95401.22;;;12.59;100.00
65181;BME280;51765;48.112;11.766;2023-12-29T12:31:52;95400.56;;;12.45;100.00
65181;BME280;51765;48.112;11.766;2023-12-29T12:34:19;95398.13;;;12.32;100.00
65181;BME280;51765;48.112;11.766;2023-12-29T12:36:49;95408.47;;;12.27;100.00
65181;BME280;51765;48.112;11.766;2023-12-29T12:39:18;95403.72;;;12.36;100.00
65181;BME280;51765;48.112;11.766;2023-12-29T12:41:45;95395.59;;;12.37;100.00
65181;BME280;51765;48.112;11.766;2023-12-29T12:44:12;95397.97;;;12.27;100.00
65181;BME280;51765;48.112;11.766;2023-12-29T12:46:40;95392.16;;;12.55;100.00
65181;BME280;51765;48.112;11.766;2023-12-29T12:49:08;95386.91;;;12.55;100.00